Time;durP1;ratioP1;P1;durP2;ratioP2;P2;SDS_P1;SDS_P2;PMS_P1;PMS_P2;Temp;Humidity;BMP_temperature;BMP_pressure;BME280_temperature;BME280_humidity;BME280_pressure;Samples;Min_cycle;Max_cycle;Signal;HPM_P1;HPM_P2
2021/12/15 00:02:19;;;;;;;1999.90;999.90;;;8.90;99.90;;;;;;5094218;28;20448;-66
2021/12/15 00:04:46;;;;;;;1999.90;999.90;;;8.80;99.90;;;;;;5093603;28;20441;-67
2021/12/15 00:07:14;;;;;;;1999.90;999.90;;;8.80;99.90;;;;;;5094265;28;20484;-67
2021/12/15 00:09:41;;;;;;;1999.90;999.90;;;8.90;99.90;;;;;;5094222;28;20440;-67
2021/12/15 00:12:13;;;;;;;1999.90;999.90;;;8.90;99.90;;;;;;5092586;28;20441;-66
2021/12/15 00:14:41;;;;;;;1999.90;999.90;;;8.90;99.90;;;;;;5076011;28;20449;-66
2021/12/15 00:17:08;;;;;;;1999.90;999.90;;;8.90;99.90;;;;;;5093561;28;20476;-68
2021/12/15 00:19:34;;;;;;;1999.90;999.90;;;9.00;99.90;;;;;;5094393;28;20444;-67
2021/12/15 00:22:01;;;;;;;1999.90;999.90;;;9.00;99.90;;;;;;5094129;28;20448;-68
2021/12/15 00:24:29;;;;;;;1999.90;999.90;;;9.00;99.90;;;;;;5094025;28;20451;-67
2021/12/15 00:26:57;;;;;;;1999.90;999.90;;;9.00;99.90;;;;;;5093790;28;20544;-67
2021/12/15 00:29:24;;;;;;;1999.90;999.90;;;9.10;99.90;;;;;;5094103;28;20473;-67
2021/12/15 00:31:52;;;;;;;1999.90;999.90;;;9.10;99.90;;;;;;5093423;28;20452;-67
2021/12/15 00:34:19;;;;;;;1999.90;999.90;;;9.10;99.90;;;;;;5094113;28;20452;-67
2021/12/15 00:36:47;;;;;;;1999.90;999.90;;;9.10;99.90;;;;;;5093825;28;20471;-67
2021/12/15 00:39:17;;;;;;;1999.90;999.90;;;9.10;99.90;;;;;;5093526;28;20464;-66
2021/12/15 00:41:47;;;;;;;1999.90;999.90;;;9.20;99.90;;;;;;5092927;28;20497;-69
2021/12/15 00:44:13;;;;;;;1999.90;999.90;;;9.20;99.90;;;;;;5094066;28;20513;-67
2021/12/15 00:46:41;;;;;;;1999.90;999.90;;;9.20;99.90;;;;;;5093492;28;20480;-67
2021/12/15 00:49:08;;;;;;;1999.90;999.90;;;9.20;99.90;;;;;;5093813;28;20502;-67
2021/12/15 00:51:36;;;;;;;1999.90;999.90;;;9.30;99.90;;;;;;5092544;28;20536;-67
2021/12/15 00:54:03;;;;;;;1999.90;999.90;;;9.30;99.90;;;;;;5093299;28;20444;-67
2021/12/15 00:56:29;;;;;;;1999.90;999.90;;;9.30;99.90;;;;;;5093015;28;20525;-67
2021/12/15 00:58:58;;;;;;;1999.90;999.90;;;9.30;99.90;;;;;;5093303;28;21005;-67
2021/12/15 01:01:26;;;;;;;1999.90;999.90;;;9.30;99.90;;;;;;5093360;28;20445;-67
2021/12/15 01:03:53;;;;;;;1999.90;999.90;;;9.40;99.90;;;;;;5092918;28;20536;-67
2021/12/15 01:06:21;;;;;;;1999.90;999.90;;;9.40;99.90;;;;;;5092955;28;20983;-67
2021/12/15 01:08:54;;;;;;;1999.90;999.90;;;9.40;99.90;;;;;;5093291;28;20476;-67
2021/12/15 01:11:29;;;;;;;1999.90;999.90;;;9.40;99.90;;;;;;5093105;28;20507;-67
2021/12/15 01:19:50;;;;;;;1999.90;999.90;;;9.30;99.90;;;;;;5092802;28;20432;-67
2021/12/15 01:22:19;;;;;;;1999.90;999.90;;;9.30;99.90;;;;;;5092779;28;20452;-67
2021/12/15 01:24:45;;;;;;;1999.90;999.90;;;9.30;99.90;;;;;;5092338;28;20448;-67
2021/12/15 01:27:12;;;;;;;1999.90;999.90;;;9.40;99.90;;;;;;5092104;28;20477;-66
2021/12/15 01:29:40;;;;;;;1999.90;999.90;;;9.40;99.90;;;;;;5092821;28;20494;-67
2021/12/15 01:32:07;;;;;;;1999.90;999.90;;;9.40;99.90;;;;;;5092453;28;20444;-67
2021/12/15 01:34:34;;;;;;;1999.90;999.90;;;9.40;99.90;;;;;;5092419;28;20501;-65
2021/12/15 01:37:01;;;;;;;1999.90;999.90;;;9.40;99.90;;;;;;5092564;28;20494;-67
2021/12/15 01:39:28;;;;;;;1999.90;999.90;;;9.30;99.90;;;;;;5092720;28;20448;-67
2021/12/15 01:41:55;;;;;;;1999.90;999.90;;;9.30;99.90;;;;;;5092267;28;20457;-67
2021/12/15 01:47:08;;;;;;;1999.90;999.90;;;9.40;99.90;;;;;;5092055;28;20475;-67
2021/12/15 01:49:38;;;;;;;1999.90;999.90;;;9.30;99.90;;;;;;5092398;28;20440;-67
2021/12/15 01:52:10;;;;;;;1999.90;999.90;;;9.30;99.90;;;;;;5092149;28;20964;-66
2021/12/15 01:54:41;;;;;;;1999.90;999.90;;;9.20;99.90;;;;;;5092336;28;20469;-67
2021/12/15 01:57:11;;;;;;;1999.90;999.90;;;9.30;99.90;;;;;;5092162;28;20510;-67
2021/12/15 01:59:39;;;;;;;1999.90;999.90;;;9.20;99.90;;;;;;5092118;28;20506;-67
2021/12/15 02:02:08;;;;;;;1999.90;999.90;;;9.30;99.90;;;;;;5092292;28;20440;-67
2021/12/15 02:04:35;;;;;;;1999.90;999.90;;;9.30;99.90;;;;;;5091386;28;20449;-66
2021/12/15 02:07:02;;;;;;;1999.90;999.90;;;9.30;99.90;;;;;;5092318;28;20484;-67
2021/12/15 02:10:01;;;;;;;1999.90;999.90;;;9.60;99.90;;;;;;5091545;28;20828;-67
2021/12/15 02:12:33;;;;;;;1999.90;999.90;;;9.40;99.90;;;;;;5092140;28;20452;-67
2021/12/15 02:15:03;;;;;;;1999.90;999.90;;;9.30;99.90;;;;;;5092334;28;20815;-67
2021/12/15 02:17:31;;;;;;;1999.90;999.90;;;9.30;99.90;;;;;;5092435;28;20464;-67
2021/12/15 02:19:57;;;;;;;1999.90;999.90;;;9.30;99.90;;;;;;5091924;28;20494;-66
2021/12/15 02:22:28;;;;;;;1999.90;999.90;;;9.30;99.90;;;;;;5091689;28;20939;-67
2021/12/15 02:24:55;;;;;;;1999.90;999.90;;;9.30;99.90;;;;;;5091888;28;20873;-67
2021/12/15 02:27:22;;;;;;;1999.90;999.90;;;9.20;99.90;;;;;;5091937;28;20488;-67
2021/12/15 02:29:52;;;;;;;1999.90;999.90;;;9.30;99.90;;;;;;5091955;28;20453;-67
2021/12/15 02:32:31;;;;;;;1999.90;999.90;;;9.30;99.90;;;;;;5091892;28;20952;-67
2021/12/15 02:37:14;;;;;;;1999.90;999.90;;;9.30;99.90;;;;;;5092840;28;20440;-68
2021/12/15 02:37:55;;;;;;;1999.90;999.90;;;9.20;99.90;;;;;;5095798;28;20874;-67
2021/12/15 02:40:22;;;;;;;1999.90;999.90;;;9.20;99.90;;;;;;5095804;28;20792;-67
2021/12/15 02:42:50;;;;;;;1999.90;999.90;;;9.20;99.90;;;;;;5095597;28;20531;-67
2021/12/15 02:45:23;;;;;;;1999.90;999.90;;;9.20;99.90;;;;;;5096055;28;20474;-67
2021/12/15 02:47:50;;;;;;;1999.90;999.90;;;9.30;99.90;;;;;;5095444;28;20507;-67
2021/12/15 02:50:20;;;;;;;1999.90;999.90;;;9.30;99.90;;;;;;5095509;28;20452;-67
2021/12/15 02:52:47;;;;;;;1999.90;999.90;;;9.30;99.90;;;;;;5095596;28;20864;-67
2021/12/15 02:55:17;;;;;;;1999.90;999.90;;;9.30;99.90;;;;;;5095634;28;20501;-67
2021/12/15 02:57:44;;;;;;;1999.90;999.90;;;9.30;99.90;;;;;;5095096;28;20569;-67
2021/12/15 03:00:22;;;;;;;1999.90;999.90;;;9.30;99.90;;;;;;5095627;28;20444;-68
2021/12/15 03:05:41;;;;;;;1999.90;999.90;;;9.30;99.90;;;;;;5095093;28;20529;-67
2021/12/15 03:08:12;;;;;;;1999.90;999.90;;;9.30;99.90;;;;;;5095407;28;20475;-67
2021/12/15 03:16:14;;;;;;;1999.90;999.90;;;9.30;99.90;;;;;;5095363;28;21012;-67
2021/12/15 03:18:41;;;;;;;1999.90;999.90;;;9.30;99.90;;;;;;5095378;28;20517;-67
2021/12/15 03:21:12;;;;;;;1999.90;999.90;;;9.30;99.90;;;;;;5095080;28;20448;-67
2021/12/15 03:23:46;;;;;;;1999.90;999.90;;;9.40;99.90;;;;;;5095693;28;20444;-67
2021/12/15 03:26:16;;;;;;;1999.90;999.90;;;9.40;99.90;;;;;;5094575;28;20463;-68
2021/12/15 03:34:26;;;;;;;1999.90;999.90;;;9.30;99.90;;;;;;5053865;28;20445;-67
2021/12/15 03:37:20;;;;;;;1999.90;999.90;;;9.30;99.90;;;;;;5094926;28;20464;-67
2021/12/15 03:39:48;;;;;;;1999.90;999.90;;;9.30;99.90;;;;;;5074680;28;20422;-68
2021/12/15 03:42:20;;;;;;;1999.90;999.90;;;9.20;99.90;;;;;;5089418;28;20456;-67
2021/12/15 03:44:48;;;;;;;1999.90;999.90;;;9.20;99.90;;;;;;5094908;28;20502;-68
2021/12/15 03:47:17;;;;;;;1999.90;999.90;;;9.20;99.90;;;;;;5094916;28;20533;-67
2021/12/15 03:49:44;;;;;;;1999.90;999.90;;;9.20;99.90;;;;;;5094324;28;20872;-67
2021/12/15 03:52:13;;;;;;;1999.90;999.90;;;9.20;99.90;;;;;;5094500;28;20527;-67
2021/12/15 03:54:41;;;;;;;1999.90;999.90;;;9.20;99.90;;;;;;5094372;28;20887;-67
2021/12/15 03:57:08;;;;;;;1999.90;999.90;;;9.20;99.90;;;;;;5094773;28;20522;-68
2021/12/15 03:59:41;;;;;;;1999.90;999.90;;;9.20;99.90;;;;;;5094632;28;20441;-67
2021/12/15 04:02:08;;;;;;;1999.90;999.90;;;9.20;99.90;;;;;;5094275;28;20453;-67
2021/12/15 04:04:34;;;;;;;1999.90;999.90;;;9.30;99.90;;;;;;5094206;28;20444;-67
2021/12/15 04:07:01;;;;;;;1999.90;999.90;;;9.30;99.90;;;;;;5094664;28;20514;-67
2021/12/15 04:09:28;;;;;;;1999.90;999.90;;;9.30;99.90;;;;;;5094075;28;20535;-67
2021/12/15 04:11:55;;;;;;;1999.90;999.90;;;9.30;99.90;;;;;;5094255;28;20441;-67
2021/12/15 04:14:28;;;;;;;1999.90;999.90;;;9.40;99.90;;;;;;5093904;28;20459;-67
2021/12/15 04:17:02;;;;;;;1999.90;999.90;;;9.30;99.90;;;;;;5094187;28;20912;-67
2021/12/15 04:19:30;;;;;;;1999.90;999.90;;;9.40;99.90;;;;;;5094255;28;20444;-67
2021/12/15 04:21:58;;;;;;;1999.90;999.90;;;9.40;99.90;;;;;;5094069;28;20476;-67
2021/12/15 04:24:28;;;;;;;1999.90;999.90;;;9.40;99.90;;;;;;5093725;28;20940;-66
2021/12/15 04:26:56;;;;;;;1999.90;999.90;;;9.40;99.90;;;;;;5078449;28;20494;-67
2021/12/15 04:29:24;;;;;;;1999.90;999.90;;;9.40;99.90;;;;;;5093744;28;20506;-67
2021/12/15 04:32:02;;;;;;;1999.90;999.90;;;9.40;99.90;;;;;;5093682;28;20940;-67
2021/12/15 04:34:29;;;;;;;1999.90;999.90;;;9.40;99.90;;;;;;5094231;28;20437;-67
2021/12/15 04:36:56;;;;;;;1999.90;999.90;;;9.40;99.90;;;;;;5093979;28;20469;-67
2021/12/15 04:39:25;;;;;;;1999.90;999.90;;;9.40;99.90;;;;;;5093725;28;20445;-67
2021/12/15 04:41:53;;;;;;;1999.90;999.90;;;9.40;99.90;;;;;;5093398;28;20452;-67
2021/12/15 04:44:22;;;;;;;1999.90;999.90;;;9.40;99.90;;;;;;5093812;28;20544;-67
2021/12/15 04:46:59;;;;;;;1999.90;999.90;;;9.50;99.90;;;;;;5093861;28;20460;-67
2021/12/15 04:49:29;;;;;;;1999.90;999.90;;;9.50;99.90;;;;;;5093562;28;20429;-68
2021/12/15 04:51:56;;;;;;;1999.90;999.90;;;9.50;99.90;;;;;;5093202;28;20437;-68
2021/12/15 04:54:23;;;;;;;1999.90;999.90;;;9.50;99.90;;;;;;5092936;28;20444;-67
2021/12/15 04:56:50;;;;;;;1999.90;999.90;;;9.50;99.90;;;;;;5093293;28;20899;-67
2021/12/15 04:59:17;;;;;;;1999.90;999.90;;;9.50;99.90;;;;;;5092316;28;21009;-67
2021/12/15 05:01:45;;;;;;;1999.90;999.90;;;9.50;99.90;;;;;;5092876;28;20506;-67
2021/12/15 05:04:12;;;;;;;1999.90;999.90;;;9.50;99.90;;;;;;5092594;28;20454;-66
2021/12/15 05:06:40;;;;;;;1999.90;999.90;;;9.50;99.90;;;;;;5093383;28;20518;-68
2021/12/15 05:09:09;;;;;;;1999.90;999.90;;;9.60;99.90;;;;;;5092841;28;20491;-67
2021/12/15 05:11:36;;;;;;;1999.90;999.90;;;9.60;99.90;;;;;;5093498;28;20444;-67
2021/12/15 05:14:04;;;;;;;1999.90;999.90;;;9.70;99.90;;;;;;5092449;28;20963;-68
2021/12/15 05:16:31;;;;;;;1999.90;999.90;;;9.70;99.90;;;;;;5093052;28;21033;-67
2021/12/15 05:18:57;;;;;;;1999.90;999.90;;;9.60;99.90;;;;;;5092501;28;20936;-67
2021/12/15 05:21:24;;;;;;;1999.90;999.90;;;9.60;99.90;;;;;;5092525;28;20997;-67
2021/12/15 05:23:57;;;;;;;1999.90;999.90;;;9.60;99.90;;;;;;5092872;28;20448;-67
2021/12/15 05:26:24;;;;;;;1999.90;999.90;;;9.70;99.90;;;;;;5093147;28;20468;-67
2021/12/15 05:28:51;;;;;;;1999.90;999.90;;;9.70;99.90;;;;;;5092153;28;20894;-67
2021/12/15 05:31:18;;;;;;;1999.90;999.90;;;9.70;99.90;;;;;;5092773;28;20472;-67
2021/12/15 05:33:45;;;;;;;1999.90;999.90;;;9.60;99.90;;;;;;5092741;28;20441;-67
2021/12/15 05:36:11;;;;;;;1999.90;999.90;;;9.60;99.90;;;;;;5092868;28;20464;-65
2021/12/15 05:38:38;;;;;;;1999.90;999.90;;;9.60;99.90;;;;;;5077644;28;20842;-68
2021/12/15 05:41:06;;;;;;;1999.90;999.90;;;9.60;99.90;;;;;;5092941;28;20440;-68
2021/12/15 05:43:33;;;;;;;1999.90;999.90;;;9.60;99.90;;;;;;5092786;28;20449;-68
2021/12/15 05:46:00;;;;;;;1999.90;999.90;;;9.60;99.90;;;;;;5092264;28;20521;-68
2021/12/15 05:48:27;;;;;;;1999.90;999.90;;;9.60;99.90;;;;;;5092356;28;20472;-68
2021/12/15 05:50:54;;;;;;;1999.90;999.90;;;9.50;99.90;;;;;;5092220;28;20456;-67
2021/12/15 05:53:22;;;;;;;1999.90;999.90;;;9.50;99.90;;;;;;5092348;28;20497;-68
2021/12/15 05:55:49;;;;;;;1999.90;999.90;;;9.60;99.90;;;;;;5092465;28;20949;-68
2021/12/15 05:58:17;;;;;;;1999.90;999.90;;;9.50;99.90;;;;;;5093331;28;20444;-69
2021/12/15 06:00:47;;;;;;;1999.90;999.90;;;9.50;99.90;;;;;;5091779;28;20461;-68
2021/12/15 06:03:14;;;;;;;1999.90;999.90;;;9.40;99.90;;;;;;5092046;28;20449;-68
2021/12/15 06:05:41;;;;;;;1999.90;999.90;;;9.40;99.90;;;;;;5092176;28;20459;-68
2021/12/15 06:08:08;;;;;;;1999.90;999.90;;;9.40;99.90;;;;;;5091708;28;20860;-67
2021/12/15 06:10:37;;;;;;;1999.90;999.90;;;9.40;99.90;;;;;;5092035;28;20470;-69
2021/12/15 06:13:06;;;;;;;1999.90;999.90;;;9.40;99.90;;;;;;5091228;28;20944;-68
2021/12/15 06:15:35;;;;;;;1999.90;999.90;;;9.30;99.90;;;;;;5091896;28;20490;-68
2021/12/15 06:18:05;;;;;;;1999.90;999.90;;;9.40;99.90;;;;;;5092010;28;20979;-70
2021/12/15 06:20:34;;;;;;;1999.90;999.90;;;9.40;99.90;;;;;;5092082;28;20429;-69
2021/12/15 06:23:05;;;;;;;1999.90;999.90;;;9.30;99.90;;;;;;5091597;28;20509;-68
2021/12/15 06:25:32;;;;;;;1999.90;999.90;;;9.30;99.90;;;;;;5091433;28;21128;-69
2021/12/15 06:27:59;;;;;;;1999.90;999.90;;;9.30;99.90;;;;;;5091956;28;20509;-68
2021/12/15 06:30:26;;;;;;;1999.90;999.90;;;9.30;99.90;;;;;;5091486;28;20448;-68
2021/12/15 06:32:54;;;;;;;1999.90;999.90;;;9.30;99.90;;;;;;5091727;28;20444;-69
2021/12/15 06:35:22;;;;;;;1999.90;999.90;;;9.30;99.90;;;;;;5091598;28;20448;-68
2021/12/15 06:37:48;;;;;;;1999.90;999.90;;;9.30;99.90;;;;;;5091530;28;20468;-68
2021/12/15 06:40:16;;;;;;;1999.90;999.90;;;9.40;99.90;;;;;;5091352;28;20498;-69
2021/12/15 06:42:43;;;;;;;1999.90;999.90;;;9.30;99.90;;;;;;5091389;28;20941;-69
2021/12/15 06:45:16;;;;;;;1999.90;999.90;;;9.40;99.90;;;;;;5091500;28;20472;-69
2021/12/15 06:58:41;;;;;;;1999.90;999.90;;;9.40;99.90;;;;;;5074760;28;20425;-69
2021/12/15 07:01:09;;;;;;;1999.90;999.90;;;9.40;99.90;;;;;;5070176;28;20949;-69
2021/12/15 07:03:36;;;;;;;1999.90;999.90;;;9.40;99.90;;;;;;5089590;28;20514;-69
2021/12/15 07:06:04;;;;;;;1999.90;999.90;;;9.50;99.90;;;;;;5088942;28;20537;-69
2021/12/15 07:08:31;;;;;;;1999.90;999.90;;;9.40;99.90;;;;;;5090896;28;20897;-68
2021/12/15 07:11:00;;;;;;;1999.90;999.90;;;9.40;99.90;;;;;;5090347;28;20455;-69
2021/12/15 07:13:28;;;;;;;1999.90;999.90;;;9.40;99.90;;;;;;5090308;28;20472;-69
2021/12/15 07:16:00;;;;;;;1999.90;999.90;;;9.40;99.90;;;;;;5089900;28;20448;-69
2021/12/15 07:18:37;;;;;;;1999.90;999.90;;;9.40;99.90;;;;;;5090674;28;20928;-69
2021/12/15 07:21:09;;;;;;;1999.90;999.90;;;9.40;99.90;;;;;;5090285;28;20444;-69
2021/12/15 07:23:37;;;;;;;1999.90;999.90;;;9.40;99.90;;;;;;5089176;28;20448;-69
2021/12/15 07:26:05;;;;;;;1999.90;999.90;;;9.40;99.90;;;;;;5087072;28;20529;-69
2021/12/15 07:28:31;;;;;;;1999.90;999.90;;;9.40;99.90;;;;;;5093812;28;20999;-69
2021/12/15 07:30:58;;;;;;;1999.90;999.90;;;9.50;99.90;;;;;;5093480;28;20557;-68
2021/12/15 07:33:26;;;;;;;1999.90;999.90;;;9.60;99.90;;;;;;5093823;28;20454;-68
2021/12/15 07:35:53;;;;;;;1999.90;999.90;;;9.60;99.90;;;;;;5093562;28;20452;-68
2021/12/15 07:38:22;;;;;;;1999.90;999.90;;;9.60;99.90;;;;;;5094024;28;20857;-69
2021/12/15 07:40:48;;;;;;;1999.90;999.90;;;9.60;99.90;;;;;;5084588;28;20848;-67
2021/12/15 07:43:23;;;;;;;1999.90;999.90;;;9.60;99.90;;;;;;5073628;28;20449;-69
2021/12/15 07:45:53;;;;;;;1999.90;999.90;;;9.60;99.90;;;;;;5087116;28;20460;-69
2021/12/15 07:48:23;;;;;;;1999.90;999.90;;;9.70;99.90;;;;;;5088174;28;20476;-68
2021/12/15 07:50:57;;;;;;;1999.90;999.90;;;9.70;99.90;;;;;;5090009;28;20445;-69
2021/12/15 07:53:25;;;;;;;1999.90;999.90;;;9.70;99.90;;;;;;5090788;28;20505;-69
2021/12/15 07:55:54;;;;;;;1999.90;999.90;;;9.70;99.90;;;;;;5052940;28;1022779;-68
2021/12/15 07:58:22;;;;;;;1999.90;999.90;;;9.80;99.90;;;;;;5095056;28;20190;-68
2021/12/15 08:00:51;;;;;;;1999.90;999.90;;;9.80;99.90;;;;;;5093797;28;21007;-70
2021/12/15 08:03:18;;;;;;;1999.90;999.90;;;9.80;99.90;;;;;;5092015;28;20932;-69
2021/12/15 08:05:47;;;;;;;1999.90;999.90;;;9.80;99.90;;;;;;5089257;28;20445;-68
2021/12/15 08:08:14;;;;;;;1999.90;999.90;;;9.80;99.90;;;;;;5088924;28;20437;-69
2021/12/15 08:10:42;;;;;;;1999.90;999.90;;;9.80;99.90;;;;;;5091057;28;20525;-69
2021/12/15 08:13:10;;;;;;;1999.90;999.90;;;9.70;99.90;;;;;;5090202;28;20498;-68
2021/12/15 08:15:38;;;;;;;1999.90;999.90;;;9.70;99.90;;;;;;5093607;28;20926;-69
2021/12/15 08:18:05;;;;;;;1999.90;999.90;;;9.60;99.90;;;;;;5094378;28;20452;-68
2021/12/15 08:20:33;;;;;;;1999.90;999.90;;;9.60;99.90;;;;;;5088685;28;20441;-68
2021/12/15 08:23:00;;;;;;;1999.90;999.90;;;9.60;99.90;;;;;;5092810;28;20445;-68
2021/12/15 08:25:27;;;;;;;1999.90;999.90;;;9.60;99.90;;;;;;5093526;28;20444;-69
2021/12/15 08:27:55;;;;;;;1999.90;999.90;;;9.70;99.90;;;;;;5093805;28;20472;-68
2021/12/15 08:30:25;;;;;;;1999.90;999.90;;;9.80;99.90;;;;;;5093362;28;20533;-69
2021/12/15 08:32:54;;;;;;;1999.90;999.90;;;9.80;99.90;;;;;;5092017;28;20444;-68
2021/12/15 08:35:23;;;;;;;1999.90;999.90;;;10.00;99.90;;;;;;5093021;28;20482;-68
2021/12/15 08:37:50;;;;;;;1999.90;999.90;;;10.10;99.90;;;;;;5093164;28;20976;-68
2021/12/15 08:40:19;;;;;;;1999.90;999.90;;;10.30;99.90;;;;;;5093758;28;20440;-69
2021/12/15 08:42:46;;;;;;;1999.90;999.90;;;10.40;99.90;;;;;;5093672;28;20453;-69
2021/12/15 08:45:15;;;;;;;1999.90;999.90;;;10.40;99.90;;;;;;5093757;28;20443;-68
2021/12/15 08:47:42;;;;;;;1999.90;999.90;;;10.50;99.90;;;;;;5084187;28;20469;-69
2021/12/15 08:50:13;;;;;;;1999.90;999.90;;;10.50;99.90;;;;;;5093309;28;20477;-69
2021/12/15 08:52:39;;;;;;;1999.90;999.90;;;10.50;99.90;;;;;;5092955;28;20929;-69
2021/12/15 08:55:09;;;;;;;1999.90;999.90;;;10.60;99.90;;;;;;5093153;28;20569;-69
2021/12/15 08:57:36;;;;;;;1999.90;999.90;;;10.60;99.90;;;;;;5093497;28;20476;-69
2021/12/15 09:00:05;;;;;;;1999.90;999.90;;;10.60;99.90;;;;;;5093154;28;20444;-69
2021/12/15 09:02:35;;;;;;;1999.90;999.90;;;10.60;99.90;;;;;;5077255;28;20453;-68
2021/12/15 09:05:01;;;;;;;1999.90;999.90;;;10.60;99.90;;;;;;5083383;28;20448;-68
2021/12/15 09:07:28;;;;;;;1999.90;999.90;;;10.60;99.90;;;;;;5093432;28;20523;-68
2021/12/15 09:09:55;;;;;;;1999.90;999.90;;;10.60;99.90;;;;;;5093073;28;20538;-68
2021/12/15 09:12:21;;;;;;;1999.90;999.90;;;10.70;99.90;;;;;;5093323;28;20441;-69
2021/12/15 09:14:48;;;;;;;1999.90;999.90;;;10.80;99.90;;;;;;5093025;28;20470;-69
2021/12/15 09:17:15;;;;;;;1999.90;999.90;;;10.70;99.90;;;;;;5093006;28;20467;-69
2021/12/15 09:19:43;;;;;;;1999.90;999.90;;;10.80;99.90;;;;;;5092909;28;20510;-69
2021/12/15 09:22:10;;;;;;;1999.90;999.90;;;10.80;99.90;;;;;;5092457;28;20494;-68
2021/12/15 09:24:37;;;;;;;1999.90;999.90;;;10.90;99.90;;;;;;5091672;28;20453;-69
2021/12/15 09:27:05;;;;;;;1999.90;999.90;;;10.90;99.90;;;;;;5093192;28;20510;-69
2021/12/15 09:29:31;;;;;;;1999.90;999.90;;;10.90;99.90;;;;;;5092377;28;20495;-70
2021/12/15 09:31:58;;;;;;;1999.90;999.90;;;10.90;99.90;;;;;;5092173;28;20952;-68
2021/12/15 09:34:26;;;;;;;1999.90;999.90;;;10.90;99.90;;;;;;5081529;28;20929;-69
2021/12/15 09:36:55;;;;;;;1999.90;999.90;;;10.90;99.90;;;;;;5092217;28;20473;-68
2021/12/15 09:39:25;;;;;;;1999.90;999.90;;;10.90;99.90;;;;;;5092891;28;20543;-68
2021/12/15 09:41:52;;;;;;;1999.90;999.90;;;10.80;99.90;;;;;;5091998;28;20452;-68
2021/12/15 09:44:23;;;;;;;1999.90;999.90;;;10.90;99.90;;;;;;5091625;28;20513;-69
2021/12/15 09:47:11;;;;;;;1999.90;999.90;;;10.80;99.90;;;;;;5091785;28;21018;-68
2021/12/15 10:03:46;;;;;;;1999.90;999.90;;;10.90;99.90;;;;;;5072063;28;20428;-69
2021/12/15 10:06:33;;;;;;;1999.90;999.90;;;10.90;99.90;;;;;;5072333;28;20461;-68
2021/12/15 10:11:54;;;;;;;1999.90;999.90;;;11.00;99.90;;;;;;5092004;28;20411;-68
2021/12/15 10:20:05;;;;;;;1999.90;999.90;;;10.90;99.90;;;;;;5070177;28;20838;-69
2021/12/15 10:22:39;;;;;;;1999.90;999.90;;;11.00;99.90;;;;;;5092279;28;20479;-69
2021/12/15 10:25:12;;;;;;;1999.90;999.90;;;11.00;99.90;;;;;;5091969;28;20444;-71
2021/12/15 10:27:42;;;;;;;1999.90;999.90;;;11.00;99.90;;;;;;5091301;28;20534;-70
2021/12/15 10:30:24;;;;;;;1999.90;999.90;;;11.00;99.90;;;;;;5089077;28;20472;-68
2021/12/15 10:32:56;;;;;;;1999.90;999.90;;;11.10;99.90;;;;;;5089624;28;20448;-69
2021/12/15 10:35:25;;;;;;;1999.90;999.90;;;11.20;99.90;;;;;;5092544;28;20445;-69
2021/12/15 10:38:17;;;;;;;1999.90;999.90;;;11.30;99.90;;;;;;5092460;28;20464;-69
2021/12/15 10:40:48;;;;;;;1999.90;999.90;;;11.50;99.90;;;;;;5092363;28;20451;-68
2021/12/15 10:43:15;;;;;;;1999.90;999.90;;;11.50;99.90;;;;;;5072015;28;20453;-69
2021/12/15 10:45:46;;;;;;;1999.90;999.90;;;11.50;99.90;;;;;;5084628;28;20569;-69
2021/12/15 10:48:24;;;;;;;1999.90;999.90;;;11.50;99.90;;;;;;5092167;28;20448;-69
2021/12/15 10:50:50;;;;;;;1999.90;999.90;;;11.60;99.90;;;;;;5071929;28;20481;-69
2021/12/15 10:53:32;;;;;;;1999.90;999.90;;;11.60;99.90;;;;;;5084805;28;20448;-68
2021/12/15 10:56:02;;;;;;;1999.90;999.90;;;11.70;99.90;;;;;;5093145;28;21029;-69
2021/12/15 10:58:35;;;;;;;1999.90;999.90;;;11.70;99.90;;;;;;5096506;28;20445;-69
2021/12/15 11:01:23;;;;;;;1999.90;999.90;;;11.60;99.90;;;;;;5096460;28;20440;-69
2021/12/15 11:03:50;;;;;;;1999.90;999.90;;;11.60;99.90;;;;;;5096014;28;20445;-69
2021/12/15 11:06:23;;;;;;;1999.90;999.90;;;11.60;99.90;;;;;;5096538;28;20513;-70
2021/12/15 11:09:10;;;;;;;1999.90;999.90;;;11.70;99.90;;;;;;5096638;28;20428;-68
2021/12/15 11:11:39;;;;;;;1999.90;999.90;;;11.60;99.90;;;;;;5096534;28;20417;-69
2021/12/15 11:14:24;;;;;;;1999.90;999.90;;;11.60;99.90;;;;;;5096343;28;20440;-69
2021/12/15 11:17:07;;;;;;;1999.90;999.90;;;11.50;99.90;;;;;;5095883;28;20495;-69
2021/12/15 11:19:45;;;;;;;1999.90;999.90;;;11.40;99.90;;;;;;5095989;28;20420;-68
2021/12/15 11:22:35;;;;;;;1999.90;999.90;;;11.40;99.90;;;;;;5094521;28;20440;-68
2021/12/15 11:25:05;;;;;;;1999.90;999.90;;;11.40;99.90;;;;;;5095456;28;20451;-68
2021/12/15 11:27:33;;;;;;;1999.90;999.90;;;11.70;99.90;;;;;;5095556;28;20464;-68
2021/12/15 11:30:00;;;;;;;1999.90;999.90;;;11.30;99.90;;;;;;5094808;28;20533;-66
2021/12/15 11:32:42;;;;;;;1999.90;999.90;;;11.20;99.90;;;;;;5094944;28;20452;-69
2021/12/15 11:35:13;;;;;;;1999.90;999.90;;;11.20;99.90;;;;;;5094996;28;20440;-69
2021/12/15 11:37:45;;;;;;;1999.90;999.90;;;11.20;99.90;;;;;;5095362;28;20968;-69
2021/12/15 11:40:13;;;;;;;1999.90;999.90;;;11.30;99.90;;;;;;5095413;28;20445;-69
2021/12/15 11:42:43;;;;;;;1999.90;999.90;;;11.20;99.90;;;;;;5095207;28;20502;-70
2021/12/15 11:45:13;;;;;;;1999.90;999.90;;;11.10;99.90;;;;;;5094632;28;20497;-68
2021/12/15 11:47:40;;;;;;;1999.90;999.90;;;11.00;99.90;;;;;;5094600;28;20510;-68
2021/12/15 11:50:10;;;;;;;1999.90;999.90;;;10.90;99.90;;;;;;5094930;28;20472;-68
2021/12/15 11:52:42;;;;;;;1999.90;999.90;;;10.80;99.90;;;;;;5094806;28;20445;-68
2021/12/15 11:55:23;;;;;;;1999.90;999.90;;;10.80;99.90;;;;;;5094943;28;20441;-68
2021/12/15 11:57:52;;;;;;;1999.90;999.90;;;10.80;99.90;;;;;;5098494;22;20551;-70
2021/12/15 12:00:22;;;;;;;1999.90;999.90;;;10.90;99.90;;;;;;5085079;28;20503;-70
2021/12/15 12:02:53;;;;;;;1999.90;999.90;;;11.00;99.90;;;;;;5074545;28;20445;-71
2021/12/15 12:05:22;;;;;;;1999.90;999.90;;;11.00;99.90;;;;;;5074729;28;20457;-71
2021/12/15 12:07:54;;;;;;;1999.90;999.90;;;11.00;99.90;;;;;;5079848;28;20907;-72
2021/12/15 12:10:26;;;;;;;1999.90;999.90;;;11.00;99.90;;;;;;5094308;28;20490;-69
2021/12/15 12:13:03;;;;;;;1999.90;999.90;;;11.10;99.90;;;;;;5094696;28;20445;-71
2021/12/15 12:15:32;;;;;;;1999.90;999.90;;;11.20;99.90;;;;;;5094882;28;20499;-70
2021/12/15 12:18:03;;;;;;;1999.90;999.90;;;11.30;99.90;;;;;;5094436;28;20891;-69
2021/12/15 12:20:32;;;;;;;1999.90;999.90;;;11.30;99.90;;;;;;5093973;28;20448;-70
2021/12/15 12:23:01;;;;;;;1999.90;999.90;;;11.40;99.90;;;;;;5094703;28;20448;-71
2021/12/15 12:25:33;;;;;;;1999.90;999.90;;;11.40;99.90;;;;;;5094040;28;20994;-71
2021/12/15 12:28:01;;;;;;;1999.90;999.90;;;11.40;99.90;;;;;;5094128;28;20464;-71
2021/12/15 12:30:30;;;;;;;1999.90;999.90;;;11.50;99.90;;;;;;5094419;28;20522;-71
2021/12/15 12:32:58;;;;;;;1999.90;999.90;;;11.60;99.90;;;;;;5093822;28;20448;-71
2021/12/15 12:35:27;;;;;;;1999.90;999.90;;;11.50;99.90;;;;;;5094030;28;20448;-72
2021/12/15 12:37:56;;;;;;;1999.90;999.90;;;11.40;99.90;;;;;;5094243;28;20468;-72
2021/12/15 12:40:26;;;;;;;1999.90;999.90;;;11.40;99.90;;;;;;5093589;28;20448;-71
2021/12/15 12:42:53;;;;;;;1999.90;999.90;;;11.30;99.90;;;;;;5093896;28;20445;-69
2021/12/15 12:45:33;;;;;;;1999.90;999.90;;;11.30;99.90;;;;;;5093339;28;20457;-71
2021/12/15 12:48:29;;;;;;;1999.90;999.90;;;11.20;99.90;;;;;;5093199;28;20526;-72
2021/12/15 12:59:40;;;;;;;1999.90;999.90;;;11.30;99.90;;;;;;5093437;28;20539;-71
2021/12/15 13:02:43;;;;;;;1999.90;999.90;;;11.30;99.90;;;;;;5093456;28;20433;-71
2021/12/15 13:05:29;;;;;;;1999.90;999.90;;;11.10;99.90;;;;;;5092482;28;20867;-70
2021/12/15 13:07:59;;;;;;;1999.90;999.90;;;11.10;99.90;;;;;;5086293;28;20464;-71
2021/12/15 13:10:57;;;;;;;1999.90;999.90;;;11.10;99.90;;;;;;5092375;28;20483;-71
2021/12/15 13:13:26;;;;;;;1999.90;999.90;;;11.20;99.90;;;;;;5092829;28;20448;-73
2021/12/15 13:15:56;;;;;;;1999.90;999.90;;;11.20;99.90;;;;;;5093453;28;20474;-71
2021/12/15 13:18:26;;;;;;;1999.90;999.90;;;11.20;99.90;;;;;;5093308;28;20471;-71
2021/12/15 13:20:55;;;;;;;1999.90;999.90;;;11.20;99.90;;;;;;5092657;28;20500;-72
2021/12/15 13:23:40;;;;;;;1999.90;999.90;;;11.20;99.90;;;;;;5092847;28;20509;-71
2021/12/15 13:28:52;;;;;;;1999.90;999.90;;;11.20;99.90;;;;;;5092917;28;20444;-71